ADDS METAR Data

Data at: 1826 UTC 20 Jul 2018

METAR for:KPYM (Plymouth Muni, MA, US)
Text:KPYM 201752Z AUTO 09009G14KT 10SM CLR 27/11 A3018 RMK AO2 SLP219 T02720111 10278 20206 55002
Temperature: 27.2°C ( 81°F)
Dewpoint: 11.1°C ( 52°F) [RH = 37%]
Pressure (altimeter):30.18 inches Hg (1022.1 mb) [Sea level pressure: 1021.9 mb]
Winds:from the E (90 degrees) at 10 MPH (9 knots; 4.6 m/s) gusting to 16 MPH (14 knots; 7.2 m/s)
Visibility:10 or more sm (16+ km)
Ceiling:at least 12,000 feet AGL
Clouds:sky clear below 12,000 feet AGL
QC Flag:automated observation with no human augmentation